Terminal Aerodrome Forecast
Issued by NWS

Home | Current Version | Previous Version | Graphics & Text | Print | Product List | Glossary On
Versions: 1 2 3 4 5 6 7 8 9 10 11 12 13 14 15
000
FTUS43 KABR 241100
TAFPIR
TAF
KPIR 241124Z 2412/2512 VRB03KT P6SM BKN200
     FM241800 31010KT P6SM SKC
     FM242300 VRB03KT P6SM BKN200=

USA.gov is the U.S. government's official web portal to all federal, state and local government web resources and services.